createdAt,value
2023-08-30T00:01:45.154Z,3.22
2023-08-30T00:04:12.481Z,3.40
2023-08-30T00:06:39.727Z,3.75
2023-08-30T00:09:07.050Z,3.30
2023-08-30T00:11:34.294Z,3.03
2023-08-30T00:14:08.105Z,3.35
2023-08-30T00:16:35.772Z,3.42
2023-08-30T00:19:03.114Z,3.65
2023-08-30T00:21:31.190Z,2.90
2023-08-30T00:23:58.557Z,3.42
2023-08-30T00:26:26.507Z,3.45
2023-08-30T00:28:55.734Z,3.60
2023-08-30T00:31:23.885Z,3.33
2023-08-30T00:33:54.689Z,3.70
2023-08-30T00:36:23.160Z,3.65
2023-08-30T00:38:50.917Z,3.50
2023-08-30T00:41:18.345Z,3.67
2023-08-30T00:43:45.711Z,3.30
2023-08-30T00:46:14.411Z,3.47
2023-08-30T00:48:42.465Z,3.15
2023-08-30T00:53:37.894Z,2.47
2023-08-30T00:56:05.719Z,2.40
2023-08-30T00:58:36.142Z,2.30
2023-08-30T01:01:08.291Z,2.40
2023-08-30T01:03:38.962Z,2.45
2023-08-30T01:06:06.815Z,2.55
2023-08-30T01:08:38.480Z,2.50
2023-08-30T01:11:18.766Z,2.67
2023-08-30T01:14:29.494Z,2.72
2023-08-30T01:16:58.484Z,2.60
2023-08-30T01:19:58.850Z,3.25
2023-08-30T01:23:06.543Z,3.10
2023-08-30T01:26:17.008Z,3.42
2023-08-30T01:28:45.938Z,2.97
2023-08-30T01:31:14.679Z,2.45
2023-08-30T01:33:44.024Z,2.78
2023-08-30T01:36:12.576Z,2.65
2023-08-30T01:38:41.627Z,2.92
2023-08-30T01:41:11.905Z,2.58
2023-08-30T01:43:45.064Z,2.28
2023-08-30T01:46:20.568Z,2.70
2023-08-30T01:48:50.024Z,2.50
2023-08-30T01:51:17.915Z,2.33
2023-08-30T01:55:40.971Z,2.47
2023-08-30T01:58:13.247Z,2.13
2023-08-30T02:00:41.297Z,2.35
2023-08-30T02:03:17.752Z,2.38
2023-08-30T02:06:12.569Z,2.80
2023-08-30T02:08:52.146Z,2.40
2023-08-30T02:11:28.680Z,2.55
2023-08-30T02:14:00.374Z,2.60
2023-08-30T02:16:29.930Z,2.28
2023-08-30T02:18:58.853Z,2.22
2023-08-30T02:21:27.927Z,2.60
2023-08-30T02:23:55.751Z,2.63
2023-08-30T02:26:23.506Z,2.30
2023-08-30T02:28:51.019Z,2.10
2023-08-30T02:31:18.484Z,2.50
2023-08-30T02:36:14.816Z,2.53
2023-08-30T02:38:42.126Z,2.40
2023-08-30T02:41:11.275Z,2.88
2023-08-30T02:43:39.006Z,2.28
2023-08-30T02:46:06.772Z,2.72
2023-08-30T02:48:34.884Z,2.30
2023-08-30T02:51:02.609Z,2.40
2023-08-30T02:54:10.832Z,2.28
2023-08-30T02:56:38.255Z,2.28
2023-08-30T02:59:07.694Z,2.28
2023-08-30T03:01:36.641Z,2.72
2023-08-30T03:06:36.037Z,2.65
2023-08-30T03:09:05.626Z,1.92
2023-08-30T03:11:35.909Z,2.30
2023-08-30T03:14:03.842Z,2.45
2023-08-30T03:16:31.262Z,2.40
2023-08-30T03:18:59.649Z,2.42
2023-08-30T03:21:27.261Z,2.60
2023-08-30T03:23:57.707Z,2.67
2023-08-30T03:26:25.222Z,2.92
2023-08-30T03:28:54.785Z,2.53
2023-08-30T03:31:23.659Z,2.33
2023-08-30T03:33:52.264Z,2.60
2023-08-30T03:36:20.530Z,2.72
2023-08-30T03:38:48.211Z,2.90
2023-08-30T03:41:16.226Z,2.80
2023-08-30T03:43:46.059Z,3.53
2023-08-30T03:46:13.819Z,2.70
2023-08-30T03:48:41.580Z,2.63
2023-08-30T03:51:09.257Z,3.17
2023-08-30T03:53:37.143Z,3.15
2023-08-30T03:56:05.625Z,3.15
2023-08-30T03:58:32.959Z,2.90
2023-08-30T04:01:00.288Z,2.70
2023-08-30T04:03:28.367Z,2.95
2023-08-30T04:06:00.638Z,3.08
2023-08-30T04:08:53.051Z,3.10
2023-08-30T04:11:21.886Z,2.60
2023-08-30T04:13:49.135Z,2.90
2023-08-30T04:16:16.684Z,3.15
2023-08-30T04:18:44.090Z,3.53
2023-08-30T04:21:11.457Z,3.17
2023-08-30T04:23:38.753Z,3.05
2023-08-30T04:26:06.349Z,2.97
2023-08-30T04:28:33.819Z,3.42
2023-08-30T04:31:01.268Z,3.20
2023-08-30T04:33:28.884Z,3.15
2023-08-30T04:36:02.160Z,3.40
2023-08-30T04:42:52.646Z,3.80
2023-08-30T04:45:24.957Z,3.13
2023-08-30T04:49:07.865Z,3.22
2023-08-30T04:54:51.011Z,3.50
2023-08-30T04:57:38.431Z,3.60
2023-08-30T05:00:53.003Z,3.97
2023-08-30T05:06:35.196Z,3.55
2023-08-30T05:09:05.736Z,3.90
2023-08-30T05:11:34.573Z,3.40
2023-08-30T05:14:30.887Z,3.47
2023-08-30T05:17:04.223Z,3.42
2023-08-30T05:20:23.683Z,3.45
2023-08-30T05:22:56.840Z,4.00
2023-08-30T05:25:38.932Z,3.63
2023-08-30T05:32:37.111Z,4.18
2023-08-30T05:36:26.667Z,4.00
2023-08-30T05:42:37.434Z,4.07
2023-08-30T05:45:06.413Z,4.22
2023-08-30T05:48:36.375Z,4.40
2023-08-30T05:51:24.795Z,5.32
2023-08-30T05:54:08.092Z,5.00
2023-08-30T05:57:17.408Z,4.63
2023-08-30T05:59:46.136Z,4.78
2023-08-30T06:02:14.004Z,4.40
2023-08-30T06:04:42.371Z,4.50
2023-08-30T06:07:33.814Z,6.03
2023-08-30T06:12:38.412Z,4.43
2023-08-30T06:15:07.800Z,5.43
2023-08-30T06:18:23.031Z,4.70
2023-08-30T06:21:03.449Z,4.40
2023-08-30T06:26:21.641Z,3.72
2023-08-30T06:29:19.207Z,3.55
2023-08-30T06:31:57.124Z,3.90
2023-08-30T06:34:29.099Z,4.45
2023-08-30T06:37:51.166Z,3.60
2023-08-30T06:40:20.677Z,3.83
2023-08-30T06:43:00.530Z,4.18
2023-08-30T06:45:32.414Z,3.97
2023-08-30T06:48:00.681Z,3.67
2023-08-30T06:50:28.336Z,3.92
2023-08-30T06:53:05.632Z,4.45
2023-08-30T06:56:52.220Z,3.88
2023-08-30T06:59:40.491Z,3.95
2023-08-30T07:02:11.784Z,4.43
2023-08-30T07:04:39.247Z,3.70
2023-08-30T07:07:06.971Z,4.00
2023-08-30T07:09:34.780Z,3.95
2023-08-30T07:12:06.173Z,3.42
2023-08-30T07:14:36.984Z,3.50
2023-08-30T07:17:05.423Z,3.70
2023-08-30T07:19:33.117Z,3.85
2023-08-30T07:22:49.309Z,3.92
2023-08-30T07:25:38.002Z,4.18
2023-08-30T07:28:08.186Z,3.83
2023-08-30T07:30:36.654Z,4.18
2023-08-30T07:33:05.865Z,3.88
2023-08-30T07:35:34.385Z,3.47
2023-08-30T07:38:02.041Z,3.47
2023-08-30T07:40:30.420Z,3.75
2023-08-30T07:42:59.805Z,3.53
2023-08-30T07:45:28.057Z,2.92
2023-08-30T07:47:57.239Z,3.17
2023-08-30T07:50:25.298Z,3.20
2023-08-30T07:52:54.067Z,3.50
2023-08-30T07:55:22.046Z,3.60
2023-08-30T07:57:49.889Z,3.10
2023-08-30T08:00:17.939Z,3.63
2023-08-30T08:02:46.032Z,3.42
2023-08-30T08:05:25.784Z,2.97
2023-08-30T08:07:58.108Z,3.75
2023-08-30T08:10:26.165Z,3.50
2023-08-30T08:12:59.538Z,2.85
2023-08-30T08:15:32.066Z,2.65
2023-08-30T08:17:59.686Z,3.03
2023-08-30T08:20:31.267Z,3.30
2023-08-30T08:23:02.365Z,3.45
2023-08-30T08:25:30.579Z,3.30
2023-08-30T08:28:01.298Z,2.90
2023-08-30T08:30:29.189Z,3.38
2023-08-30T08:33:01.118Z,3.00
2023-08-30T08:35:32.041Z,3.67
2023-08-30T08:38:02.331Z,3.45
2023-08-30T08:40:41.851Z,3.22
2023-08-30T08:43:14.197Z,3.25
2023-08-30T08:45:58.490Z,3.88
2023-08-30T08:48:32.719Z,3.25
2023-08-30T08:51:25.931Z,3.30
2023-08-30T08:53:54.115Z,3.30
2023-08-30T08:56:50.001Z,3.85
2023-08-30T08:59:26.292Z,3.60
2023-08-30T09:01:54.596Z,3.50
2023-08-30T09:04:26.227Z,3.05
2023-08-30T09:07:04.404Z,3.13
2023-08-30T09:09:38.097Z,3.70
2023-08-30T09:12:05.941Z,3.92
2023-08-30T09:14:33.730Z,3.70
2023-08-30T09:19:49.824Z,3.20
2023-08-30T09:22:17.275Z,3.67
2023-08-30T09:24:48.205Z,2.95
2023-08-30T09:27:15.840Z,3.25
2023-08-30T09:29:47.056Z,2.83
2023-08-30T09:32:27.357Z,3.40
2023-08-30T09:35:05.316Z,3.17
2023-08-30T09:37:32.849Z,3.33
2023-08-30T09:40:12.427Z,3.45
2023-08-30T09:43:13.492Z,3.28
2023-08-30T09:46:08.269Z,3.47
2023-08-30T09:48:49.109Z,2.92
2023-08-30T09:51:26.025Z,2.88
2023-08-30T09:54:06.111Z,3.17
2023-08-30T09:56:34.913Z,2.83
2023-08-30T09:59:20.843Z,2.80
2023-08-30T10:02:12.945Z,2.70
2023-08-30T10:05:06.563Z,3.92
2023-08-30T10:07:41.850Z,2.60
2023-08-30T10:10:12.219Z,2.88
2023-08-30T10:12:48.006Z,2.40
2023-08-30T10:15:30.661Z,3.33
2023-08-30T10:18:02.181Z,2.83
2023-08-30T10:20:31.653Z,3.30
2023-08-30T10:23:07.208Z,2.60
2023-08-30T10:25:47.365Z,2.65
2023-08-30T10:31:19.659Z,2.38
2023-08-30T10:34:00.816Z,3.03
2023-08-30T10:36:28.601Z,2.58
2023-08-30T10:38:57.225Z,2.90
2023-08-30T10:41:27.629Z,2.85
2023-08-30T10:43:59.905Z,2.53
2023-08-30T10:47:06.598Z,2.53
2023-08-30T10:49:43.698Z,2.50
2023-08-30T10:52:47.979Z,2.55
2023-08-30T10:55:54.772Z,1.70
2023-08-30T10:58:23.064Z,2.03
2023-08-30T11:01:23.117Z,1.52
2023-08-30T11:04:44.140Z,1.20
2023-08-30T11:07:13.346Z,1.40
2023-08-30T11:10:06.156Z,1.45
2023-08-30T11:12:48.970Z,1.30
2023-08-30T11:19:13.218Z,1.75
2023-08-30T11:22:25.575Z,1.92
2023-08-30T11:25:13.621Z,1.70
2023-08-30T11:28:06.410Z,2.10
2023-08-30T11:30:34.264Z,1.80
2023-08-30T11:33:04.067Z,2.03
2023-08-30T11:35:32.898Z,1.63
2023-08-30T11:38:10.308Z,1.70
2023-08-30T11:40:40.387Z,1.20
2023-08-30T11:43:09.152Z,1.30
2023-08-30T11:45:40.753Z,1.15
2023-08-30T11:48:10.046Z,1.20
2023-08-30T11:53:18.675Z,2.10
2023-08-30T11:55:46.950Z,1.60
2023-08-30T12:00:56.058Z,1.27
2023-08-30T12:03:37.781Z,1.17
2023-08-30T12:06:55.326Z,1.17
2023-08-30T12:09:23.117Z,1.40
2023-08-30T12:11:53.782Z,1.67
2023-08-30T12:15:12.589Z,1.58
2023-08-30T12:17:41.206Z,1.52
2023-08-30T12:23:35.020Z,1.65
2023-08-30T12:26:14.263Z,1.10
2023-08-30T12:28:45.746Z,1.70
2023-08-30T12:31:13.790Z,1.83
2023-08-30T12:36:14.825Z,1.40
2023-08-30T12:38:42.066Z,1.45
2023-08-30T12:41:16.231Z,1.50
2023-08-30T12:44:13.005Z,1.17
2023-08-30T12:46:40.772Z,1.50
2023-08-30T12:49:16.485Z,1.08
2023-08-30T12:51:43.994Z,1.30
2023-08-30T12:54:11.764Z,1.35
2023-08-30T12:56:39.226Z,1.30
2023-08-30T12:59:10.341Z,1.10
2023-08-30T13:01:40.932Z,1.10
2023-08-30T13:04:10.234Z,1.40
2023-08-30T13:06:37.753Z,1.30
2023-08-30T13:09:05.223Z,1.40
2023-08-30T13:12:47.277Z,1.30
2023-08-30T13:17:14.704Z,1.10
2023-08-30T13:19:43.152Z,1.00
2023-08-30T13:22:11.166Z,1.33
2023-08-30T13:27:05.941Z,1.00
2023-08-30T13:29:33.506Z,1.02
2023-08-30T13:32:04.396Z,1.20
2023-08-30T13:34:32.815Z,0.90
2023-08-30T13:37:00.373Z,1.20
2023-08-30T13:39:28.314Z,1.08
2023-08-30T13:41:57.524Z,1.27
2023-08-30T13:44:25.597Z,1.00
2023-08-30T13:46:56.028Z,1.10
2023-08-30T13:49:26.385Z,1.02
2023-08-30T13:52:07.135Z,1.35
2023-08-30T13:54:35.247Z,1.00
2023-08-30T13:57:12.222Z,1.10
2023-08-30T13:59:53.497Z,1.10
2023-08-30T14:02:21.542Z,1.15
2023-08-30T14:04:50.526Z,1.13
2023-08-30T14:07:18.395Z,1.13
2023-08-30T14:09:49.199Z,1.65
2023-08-30T14:12:41.663Z,1.00
2023-08-30T14:15:36.305Z,1.23
2023-08-30T14:19:24.635Z,1.23
2023-08-30T14:21:55.524Z,1.10
2023-08-30T14:27:35.953Z,1.02
2023-08-30T14:30:04.335Z,1.10
2023-08-30T14:32:31.623Z,1.50
2023-08-30T14:35:03.672Z,1.42
2023-08-30T14:37:31.440Z,1.25
2023-08-30T14:40:01.792Z,1.20
2023-08-30T14:42:29.097Z,0.95
2023-08-30T14:44:56.323Z,1.02
2023-08-30T14:47:26.978Z,1.00
2023-08-30T14:49:57.618Z,1.33
2023-08-30T14:55:50.913Z,0.73
2023-08-30T14:59:35.108Z,1.10
2023-08-30T15:02:18.774Z,0.90
2023-08-30T15:04:50.369Z,1.20
2023-08-30T15:08:03.481Z,0.98
2023-08-30T15:10:44.547Z,1.13
2023-08-30T15:13:19.000Z,0.90
2023-08-30T15:15:59.833Z,1.10
2023-08-30T15:18:34.556Z,1.30
2023-08-30T15:21:44.669Z,1.25
2023-08-30T15:24:18.227Z,0.90
2023-08-30T15:29:38.567Z,1.35
2023-08-30T15:31:54.049Z,1.02
2023-08-30T15:34:51.680Z,1.20
2023-08-30T15:37:20.851Z,1.13
2023-08-30T15:40:38.257Z,1.00
2023-08-30T15:47:17.016Z,1.17
2023-08-30T15:49:54.998Z,1.20
2023-08-30T15:56:49.289Z,1.27
2023-08-30T15:59:17.017Z,0.77
2023-08-30T16:04:54.576Z,1.00
2023-08-30T16:09:49.412Z,1.02
2023-08-30T16:12:16.765Z,0.90
2023-08-30T16:14:43.991Z,0.98
2023-08-30T16:17:11.289Z,1.20
2023-08-30T16:19:38.504Z,1.20
2023-08-30T16:22:05.684Z,0.90
2023-08-30T16:24:33.930Z,1.10
2023-08-30T16:27:01.334Z,1.15
2023-08-30T16:31:56.342Z,1.13
2023-08-30T16:34:23.685Z,1.20
2023-08-30T16:36:51.323Z,1.10
2023-08-30T16:41:46.425Z,1.23
2023-08-30T16:44:13.669Z,0.90
2023-08-30T16:46:40.947Z,1.00
2023-08-30T16:49:10.805Z,0.80
2023-08-30T16:51:38.890Z,0.90
2023-08-30T16:54:07.164Z,1.15
2023-08-30T16:56:34.377Z,1.08
2023-08-30T16:59:01.624Z,0.73
2023-08-30T17:01:28.897Z,0.88
2023-08-30T17:03:56.168Z,0.95
2023-08-30T17:06:23.401Z,1.20
2023-08-30T17:08:50.763Z,0.98
2023-08-30T17:11:18.003Z,0.90
2023-08-30T17:13:45.310Z,1.20
2023-08-30T17:16:12.544Z,0.85
2023-08-30T17:18:40.783Z,1.02
2023-08-30T17:21:11.220Z,0.95
2023-08-30T17:23:39.971Z,0.73
2023-08-30T17:26:07.905Z,0.90
2023-08-30T17:28:36.841Z,1.08
2023-08-30T17:31:06.942Z,1.13
2023-08-30T17:33:36.178Z,1.40
2023-08-30T17:36:04.901Z,1.10
2023-08-30T17:38:37.308Z,1.00
2023-08-30T17:41:12.033Z,1.17
2023-08-30T17:43:39.545Z,0.82
2023-08-30T17:46:07.106Z,1.23
2023-08-30T17:48:35.259Z,0.93
2023-08-30T17:51:04.855Z,1.20
2023-08-30T17:53:32.358Z,1.27
2023-08-30T17:56:00.997Z,0.85
2023-08-30T17:58:29.051Z,0.95
2023-08-30T18:00:59.020Z,0.80
2023-08-30T18:03:30.114Z,0.90
2023-08-30T18:06:05.496Z,1.10
2023-08-30T18:08:32.752Z,1.23
2023-08-30T18:10:59.929Z,1.00
2023-08-30T18:13:27.148Z,1.00
2023-08-30T18:15:54.604Z,1.10
2023-08-30T18:18:21.928Z,1.00
2023-08-30T18:20:49.134Z,1.00
2023-08-30T18:23:17.268Z,1.00
2023-08-30T18:25:44.484Z,1.08
2023-08-30T18:28:11.964Z,1.15
2023-08-30T18:30:39.224Z,1.00
2023-08-30T18:33:06.544Z,1.10
2023-08-30T18:35:34.011Z,1.25
2023-08-30T18:38:04.084Z,1.95
2023-08-30T18:40:31.580Z,1.20
2023-08-30T18:42:58.984Z,3.60
2023-08-30T18:45:26.184Z,1.70
2023-08-30T18:47:53.521Z,1.77
2023-08-30T18:50:20.865Z,1.33
2023-08-30T18:52:48.351Z,1.73
2023-08-30T18:55:16.126Z,1.58
2023-08-30T18:57:43.570Z,1.80
2023-08-30T19:00:11.934Z,2.33
2023-08-30T19:02:39.674Z,2.53
2023-08-30T19:05:08.238Z,2.88
2023-08-30T19:07:35.450Z,3.03
2023-08-30T19:10:03.828Z,2.63
2023-08-30T19:12:31.159Z,2.75
2023-08-30T19:14:58.382Z,2.92
2023-08-30T19:17:25.832Z,2.50
2023-08-30T19:19:53.072Z,2.45
2023-08-30T19:22:21.990Z,2.40
2023-08-30T19:24:49.521Z,2.22
2023-08-30T19:27:17.107Z,2.20
2023-08-30T19:29:45.944Z,2.10
2023-08-30T19:32:13.223Z,2.40
2023-08-30T19:34:40.455Z,2.05
2023-08-30T19:37:07.605Z,2.10
2023-08-30T19:39:34.761Z,1.80
2023-08-30T19:42:01.939Z,1.60
2023-08-30T19:44:29.143Z,1.70
2023-08-30T19:46:59.544Z,2.00
2023-08-30T19:49:26.960Z,2.03
2023-08-30T19:51:54.882Z,2.25
2023-08-30T19:54:22.059Z,1.30
2023-08-30T19:56:49.361Z,1.63
2023-08-30T19:59:16.559Z,1.20
2023-08-30T20:01:43.754Z,1.60
2023-08-30T20:04:11.027Z,1.35
2023-08-30T20:06:38.771Z,1.60
2023-08-30T20:09:06.120Z,1.60
2023-08-30T20:11:33.305Z,1.95
2023-08-30T20:14:00.463Z,2.03
2023-08-30T20:16:27.676Z,1.60
2023-08-30T20:18:54.997Z,1.73
2023-08-30T20:21:22.181Z,1.52
2023-08-30T20:23:49.641Z,1.55
2023-08-30T20:26:16.941Z,1.85
2023-08-30T20:28:46.985Z,1.52
2023-08-30T20:31:15.637Z,1.80
2023-08-30T20:33:43.718Z,1.50
2023-08-30T20:38:38.008Z,1.83
2023-08-30T20:41:05.180Z,1.85
2023-08-30T20:43:32.758Z,1.70
2023-08-30T20:46:00.454Z,1.90
2023-08-30T20:48:29.160Z,1.50
2023-08-30T20:50:59.124Z,1.83
2023-08-30T20:53:40.891Z,1.40
2023-08-30T20:56:11.665Z,1.60
2023-08-30T20:58:44.828Z,2.35
2023-08-30T21:01:12.859Z,1.70
2023-08-30T21:03:40.654Z,2.00
2023-08-30T21:06:10.848Z,2.00
2023-08-30T21:08:39.259Z,1.95
2023-08-30T21:11:09.992Z,2.05
2023-08-30T21:13:37.433Z,2.65
2023-08-30T21:16:05.443Z,2.45
2023-08-30T21:18:32.759Z,1.88
2023-08-30T21:21:00.852Z,2.30
2023-08-30T21:23:28.604Z,1.90
2023-08-30T21:25:55.925Z,1.92
2023-08-30T21:28:23.165Z,1.90
2023-08-30T21:30:50.410Z,2.08
2023-08-30T21:33:19.279Z,2.55
2023-08-30T21:35:47.707Z,2.00
2023-08-30T21:38:20.205Z,1.90
2023-08-30T21:40:49.088Z,2.33
2023-08-30T21:43:16.556Z,2.10
2023-08-30T21:45:44.884Z,2.40
2023-08-30T21:48:12.713Z,2.10
2023-08-30T21:50:40.821Z,2.42
2023-08-30T21:53:08.558Z,2.33
2023-08-30T21:55:35.970Z,2.28
2023-08-30T21:58:04.458Z,2.55
2023-08-30T22:00:31.678Z,2.40
2023-08-30T22:02:59.034Z,2.40
2023-08-30T22:05:26.318Z,2.90
2023-08-30T22:07:53.508Z,2.90
2023-08-30T22:10:21.063Z,2.38
2023-08-30T22:12:49.600Z,2.90
2023-08-30T22:15:17.524Z,2.38
2023-08-30T22:17:48.248Z,2.20
2023-08-30T22:20:21.190Z,2.50
2023-08-30T22:22:49.201Z,2.72
2023-08-30T22:25:17.166Z,2.40
2023-08-30T22:30:15.880Z,2.08
2023-08-30T22:32:46.716Z,2.33
2023-08-30T22:35:17.090Z,2.40
2023-08-30T22:37:44.950Z,2.75
2023-08-30T22:40:13.067Z,2.58
2023-08-30T22:42:41.499Z,2.42
2023-08-30T22:45:10.379Z,2.00
2023-08-30T22:47:37.868Z,2.67
2023-08-30T22:50:06.506Z,2.25
2023-08-30T22:52:35.576Z,2.20
2023-08-30T22:55:04.660Z,2.20
2023-08-30T22:57:32.144Z,2.38
2023-08-30T23:00:06.401Z,1.95
2023-08-30T23:05:04.558Z,1.98
2023-08-30T23:07:31.770Z,2.40
2023-08-30T23:10:01.591Z,2.10
2023-08-30T23:12:28.883Z,2.00
2023-08-30T23:14:58.066Z,2.25
2023-08-30T23:17:25.410Z,2.10
2023-08-30T23:19:52.654Z,2.40
2023-08-30T23:22:20.005Z,2.13
2023-08-30T23:24:47.556Z,2.20
2023-08-30T23:27:14.960Z,2.20
2023-08-30T23:29:42.137Z,2.20
2023-08-30T23:32:09.385Z,2.50
2023-08-30T23:34:36.776Z,2.28
2023-08-30T23:37:04.178Z,2.47
2023-08-30T23:39:31.407Z,2.58
2023-08-30T23:41:59.696Z,2.28
2023-08-30T23:44:26.896Z,2.80
2023-08-30T23:46:54.125Z,2.50
2023-08-30T23:49:21.280Z,2.40
2023-08-30T23:51:48.452Z,2.50
2023-08-30T23:54:15.620Z,2.90
2023-08-30T23:56:42.847Z,2.35
2023-08-30T23:59:11.404Z,2.50
